Eastend, Virginia
Current Conditions -  °F | °C
As of 11:54 AM on Friday 28 Nov 2014 (Local Time) from KRIC Reporting Station
Scattered Clouds Scattered Clouds  
Wind Chill: 36°   Ceiling: Unl
Heat Index: 43°   Visibility: 10mi
Dew Point: 20°   Wind: 15mph
Humidity: 40%   Direction: 320°NW
Pressure: 30.3"   Gusts: 23mph
Location:  37.556°N, 77.3779°W
Report Text: KRIC 281654Z 32013G20KT 10SM SCT047 06/M07 A3030 RMK AO2 SLP265 T00611067
Loading
Personal Weather Stations






























Interactive Weather Map New forecast layout! Learn more

10-Day Weather Forecast

Advertisements
Track Severe Weather on mobile